Veenendaal, Netherlands
Current Conditions -  °F | °C
As of 5:55 PM on Thursday 27 Nov 2014 (Local Time) from EHDL Reporting Station
Drizzle Drizzle  
Wind Chill: 41°   Ceiling: 5100
Heat Index: 45°   Visibility: 2.6mi
Dew Point: 43°   Wind: 7mph
Humidity: 93%   Direction: 90°E
Pressure: 29.71"   Gusts: NA
Location:  52.03°N, 5.56°E
Report Text: EHDL 271655Z AUTO 09006KT 4300 DZ SCT047 OVC051 07/06 Q1006 GRN
Loading
Personal Weather Stations






























Interactive Weather Map New forecast layout! Learn more

10-Day Weather Forecast

Advertisements
Track Severe Weather on mobile